Time;durP1;ratioP1;P1;durP2;ratioP2;P2;SDS_P1;SDS_P2;PMS_P1;PMS_P2;Temp;Humidity;BMP_temperature;BMP_pressure;BME280_temperature;BME280_humidity;BME280_pressure;Samples;Min_cycle;Max_cycle;Signal;HPM_P1;HPM_P2
2022/05/19 00:01:25;;;;;;;5.50;3.30;;;;;;;24.33;49.35;101679.59;5012755;28;20069;-65
2022/05/19 00:03:50;;;;;;;5.25;3.60;;;;;;;24.34;49.65;101680.41;5012800;28;20033;-64
2022/05/19 00:06:16;;;;;;;5.37;3.20;;;;;;;24.33;49.29;101674.25;5012264;28;20030;-64
2022/05/19 00:08:42;;;;;;;5.25;3.35;;;;;;;24.33;49.30;101673.44;5012936;28;20033;-65
2022/05/19 00:11:11;;;;;;;6.38;4.20;;;;;;;24.33;49.73;101668.94;5012431;28;20037;-65
2022/05/19 00:13:37;;;;;;;5.07;3.28;;;;;;;24.34;49.43;101669.75;5011963;28;20493;-65
2022/05/19 00:16:06;;;;;;;5.97;3.70;;;;;;;24.33;49.49;101660.13;5012445;28;20378;-65
2022/05/19 00:18:33;;;;;;;5.10;3.53;;;;;;;24.34;49.42;101661.78;5013008;28;20040;-65
2022/05/19 00:20:58;;;;;;;5.35;3.40;;;;;;;24.34;49.64;101656.44;5011465;28;20481;-64
2022/05/19 00:23:24;;;;;;;5.63;3.40;;;;;;;24.34;49.38;101659.97;5012868;28;20033;-65
2022/05/19 00:25:49;;;;;;;5.40;3.50;;;;;;;24.33;49.34;101654.78;5011788;28;20026;-65
2022/05/19 00:28:15;;;;;;;5.57;3.65;;;;;;;24.33;49.74;101655.63;5012740;28;20278;-65
2022/05/19 00:30:41;;;;;;;4.28;3.33;;;;;;;24.34;49.52;101653.78;5012770;28;20118;-65
2022/05/19 00:33:08;;;;;;;5.45;3.60;;;;;;;24.33;49.29;101649.47;5011359;28;20482;-65
2022/05/19 00:35:37;;;;;;;5.07;3.33;;;;;;;24.33;49.46;101649.47;5012741;28;20054;-65
2022/05/19 00:38:02;;;;;;;6.07;3.70;;;;;;;24.33;49.18;101636.97;5013093;28;20030;-64
2022/05/19 00:40:28;;;;;;;5.22;3.55;;;;;;;24.32;49.67;101645.09;5012789;28;20540;-64
2022/05/19 00:42:53;;;;;;;5.60;3.67;;;;;;;24.33;49.55;101633.47;5013213;28;20049;-64
2022/05/19 00:45:21;;;;;;;5.73;3.60;;;;;;;24.33;49.65;101638.81;5013445;28;20142;-64
2022/05/19 00:47:54;;;;;;;5.53;3.67;;;;;;;24.32;49.61;101629.94;5013845;28;20775;-65
2022/05/19 00:50:24;;;;;;;5.20;3.58;;;;;;;24.32;49.10;101631.78;5016469;28;20022;-64
2022/05/19 00:52:53;;;;;;;5.63;3.97;;;;;;;24.33;49.46;101630.81;5015876;28;20508;-64
2022/05/19 00:55:35;;;;;;;6.10;3.47;;;;;;;24.31;49.56;101622.97;5015367;28;20018;-64
2022/05/19 00:58:08;;;;;;;6.10;3.70;;;;;;;24.32;49.22;101618.47;5016069;28;20032;-65
2022/05/19 01:00:34;;;;;;;5.45;3.58;;;;;;;24.32;49.10;101621.13;5016264;28;20029;-65
2022/05/19 01:03:00;;;;;;;5.05;3.53;;;;;;;24.33;49.55;101620.16;5015056;28;20034;-65
2022/05/19 01:05:34;;;;;;;5.72;3.85;;;;;;;24.31;49.30;101609.66;5015987;28;20026;-65
2022/05/19 01:08:13;;;;;;;6.53;3.90;;;;;;;24.32;49.07;101605.97;5015171;28;20030;-64
2022/05/19 01:10:40;;;;;;;5.30;3.90;;;;;;;24.31;49.57;101620.31;5016013;28;20026;-64
2022/05/19 01:13:06;;;;;;;6.05;3.45;;;;;;;24.31;49.17;101604.31;5015530;28;20034;-64
2022/05/19 01:15:34;;;;;;;6.32;3.50;;;;;;;24.32;49.30;101602.50;5015111;28;20367;-64
2022/05/19 01:18:00;;;;;;;5.13;3.45;;;;;;;24.31;49.30;101604.31;5015540;28;20233;-64
2022/05/19 01:20:27;;;;;;;5.30;3.75;;;;;;;24.32;49.33;101594.50;5015377;28;20088;-63
2022/05/19 01:22:54;;;;;;;5.55;3.90;;;;;;;24.31;49.12;101596.34;5014816;28;20069;-64
2022/05/19 01:25:33;;;;;;;6.15;4.00;;;;;;;24.30;49.13;101588.50;5015506;28;20378;-64
2022/05/19 01:27:59;;;;;;;5.70;4.15;;;;;;;24.31;49.28;101583.00;5015375;28;20029;-64
2022/05/19 01:30:25;;;;;;;5.60;3.60;;;;;;;24.32;49.41;101583.84;5014809;28;20026;-64
2022/05/19 01:32:53;;;;;;;5.78;3.95;;;;;;;24.31;49.20;101575.03;5015042;28;20506;-65
2022/05/19 01:35:19;;;;;;;5.55;4.20;;;;;;;24.32;49.21;101567.88;5015523;28;20498;-65
2022/05/19 01:37:50;;;;;;;6.50;4.20;;;;;;;24.31;49.23;101560.84;5014587;28;20061;-64
2022/05/19 01:40:40;;;;;;;5.35;3.53;;;;;;;24.32;49.29;101567.88;5015466;28;20033;-65
2022/05/19 01:43:37;;;;;;;5.70;3.92;;;;;;;24.33;49.01;101572.22;5014424;28;20064;-65
2022/05/19 01:46:22;;;;;;;5.35;4.03;;;;;;;24.33;49.08;101569.56;5015084;28;20033;-65
2022/05/19 01:49:00;;;;;;;5.70;4.07;;;;;;;24.30;49.22;101565.34;5015409;28;20151;-65
2022/05/19 01:51:38;;;;;;;7.20;4.22;;;;;;;24.31;49.47;101560.84;5014228;28;20541;-65
2022/05/19 01:54:32;;;;;;;5.90;4.40;;;;;;;24.31;49.16;101564.38;5014946;28;20025;-64
2022/05/19 01:57:06;;;;;;;6.23;4.33;;;;;;;24.31;49.44;101564.38;5014636;28;20444;-64
2022/05/19 01:59:43;;;;;;;6.60;4.38;;;;;;;24.32;49.09;101557.22;5014162;28;20030;-65
2022/05/19 02:02:15;;;;;;;5.18;3.95;;;;;;;24.30;49.24;101554.69;5014608;28;20632;-65
2022/05/19 02:04:53;;;;;;;5.05;4.05;;;;;;;24.30;49.15;101549.38;5014277;28;20084;-64
2022/05/19 02:07:20;;;;;;;5.40;3.92;;;;;;;24.31;48.95;101551.06;5014985;28;20030;-64
2022/05/19 02:10:01;;;;;;;6.35;4.53;;;;;;;24.32;49.35;101549.22;5014862;28;20057;-64
2022/05/19 02:12:32;;;;;;;5.60;3.92;;;;;;;24.31;49.35;101544.88;5013875;28;20022;-64
2022/05/19 02:15:00;;;;;;;6.95;4.35;;;;;;;24.30;49.05;101552.03;5014616;28;20037;-64
2022/05/19 02:17:30;;;;;;;6.10;4.10;;;;;;;24.30;49.17;101554.69;5014781;28;20060;-64
2022/05/19 02:20:00;;;;;;;7.13;4.15;;;;;;;24.30;49.22;101551.19;5013475;28;20096;-64
2022/05/19 02:22:32;;;;;;;6.95;4.60;;;;;;;24.30;48.99;101551.19;5014464;28;20037;-64
2022/05/19 02:25:01;;;;;;;6.30;4.53;;;;;;;24.30;49.25;101553.88;5014165;28;20022;-64
2022/05/19 02:27:51;;;;;;;6.57;4.47;;;;;;;24.29;48.90;101557.50;5013851;28;20030;-64
2022/05/19 02:30:31;;;;;;;7.18;4.80;;;;;;;24.29;49.42;101558.34;5014851;28;20393;-64
2022/05/19 02:32:57;;;;;;;5.88;4.30;;;;;;;24.29;49.40;101558.34;5013331;28;20034;-65
2022/05/19 02:35:23;;;;;;;6.32;4.60;;;;;;;24.29;49.43;101553.00;5014594;28;20482;-64
2022/05/19 02:37:49;;;;;;;6.03;4.20;;;;;;;24.26;49.57;101556.81;5015003;28;20485;-64
2022/05/19 02:40:17;;;;;;;5.72;4.22;;;;;;;24.29;49.16;101561.00;5014291;28;20080;-66
2022/05/19 02:42:46;;;;;;;6.13;4.18;;;;;;;24.26;49.45;101564.81;5014800;28;20152;-64
2022/05/19 02:45:14;;;;;;;5.80;3.97;;;;;;;24.27;49.13;101565.63;5013902;28;20022;-64
2022/05/19 02:47:40;;;;;;;5.57;4.30;;;;;;;24.29;48.99;101565.50;5013478;28;20037;-66
2022/05/19 02:50:07;;;;;;;6.53;4.20;;;;;;;24.26;49.45;101567.47;5014436;28;20022;-64
2022/05/19 02:52:35;;;;;;;5.63;4.13;;;;;;;24.27;48.92;101571.81;5014053;28;20033;-64
2022/05/19 02:55:01;;;;;;;6.13;4.65;;;;;;;24.26;49.43;101574.63;5013010;28;20032;-65
2022/05/19 02:57:28;;;;;;;5.63;4.07;;;;;;;24.26;49.05;101575.47;5013846;28;20022;-65
2022/05/19 02:59:56;;;;;;;7.22;4.30;;;;;;;24.26;49.18;101578.13;5013475;28;20030;-64
2022/05/19 03:02:22;;;;;;;5.85;4.18;;;;;;;24.26;49.00;101599.44;5013032;28;20363;-65
2022/05/19 03:04:47;;;;;;;6.68;4.53;;;;;;;24.26;49.33;101668.69;5013797;28;20488;-65
2022/05/19 03:07:15;;;;;;;6.07;4.50;;;;;;;24.26;48.96;101695.31;5013627;28;20032;-64
2022/05/19 03:09:42;;;;;;;5.55;4.20;;;;;;;24.26;49.08;101699.81;5012611;28;20068;-65
2022/05/19 03:12:11;;;;;;;6.35;4.47;;;;;;;24.26;49.09;101673.19;5013159;28;20482;-65
2022/05/19 03:14:36;;;;;;;6.05;4.53;;;;;;;24.26;48.98;101711.28;5012754;28;20080;-64
2022/05/19 03:17:11;;;;;;;6.30;4.80;;;;;;;24.25;49.25;101717.59;5013101;28;20438;-64
2022/05/19 03:19:37;;;;;;;5.68;4.47;;;;;;;24.26;49.11;101719.28;5013509;28;20267;-65
2022/05/19 03:22:04;;;;;;;6.32;4.53;;;;;;;24.25;49.21;101712.28;5012666;28;20034;-64
2022/05/19 03:24:30;;;;;;;5.90;4.60;;;;;;;24.26;49.18;101732.59;5013481;28;20034;-65
2022/05/19 03:26:55;;;;;;;6.40;4.32;;;;;;;24.26;49.27;101731.78;5013178;28;20022;-65
2022/05/19 03:29:20;;;;;;;6.00;4.65;;;;;;;24.26;48.83;101715.78;5012569;28;20041;-65
2022/05/19 03:31:46;;;;;;;6.50;4.22;;;;;;;24.25;49.13;101730.09;5013180;28;20030;-65
2022/05/19 03:34:11;;;;;;;6.73;4.33;;;;;;;24.25;48.95;101717.59;5013300;28;20025;-67
2022/05/19 03:36:36;;;;;;;5.38;4.20;;;;;;;24.24;49.32;101721.25;5012631;28;20303;-66
2022/05/19 03:39:02;;;;;;;5.40;4.40;;;;;;;24.24;49.19;101731.91;5013038;28;20021;-65
2022/05/19 03:41:27;;;;;;;6.10;3.92;;;;;;;24.25;48.82;101727.41;5013153;28;20037;-65
2022/05/19 03:43:53;;;;;;;5.10;3.60;;;;;;;24.24;48.90;101741.72;5012167;28;20025;-65
2022/05/19 03:46:19;;;;;;;6.85;4.20;;;;;;;24.23;48.96;101732.88;5013425;28;20026;-65
2022/05/19 03:48:45;;;;;;;5.68;4.20;;;;;;;24.24;49.23;101699.97;5013308;28;20083;-65
2022/05/19 03:51:16;;;;;;;5.30;4.00;;;;;;;24.23;48.81;101708.91;5012219;28;20026;-65
2022/05/19 03:53:42;;;;;;;6.18;4.40;;;;;;;24.23;48.89;101708.91;5013320;28;20030;-65
2022/05/19 03:56:07;;;;;;;5.90;4.37;;;;;;;24.22;49.28;101707.22;5012935;28;20411;-65
2022/05/19 03:58:32;;;;;;;6.27;4.40;;;;;;;24.24;49.20;101733.72;5011563;28;20038;-65
2022/05/19 04:00:57;;;;;;;6.27;4.70;;;;;;;24.24;48.83;101747.91;5012864;28;20293;-65
2022/05/19 04:03:23;;;;;;;5.60;4.30;;;;;;;24.23;48.94;101743.53;5013023;28;20283;-65
2022/05/19 04:05:48;;;;;;;7.07;4.37;;;;;;;24.23;49.07;101735.56;5012175;28;20022;-65
2022/05/19 04:08:13;;;;;;;6.53;4.53;;;;;;;24.22;48.94;101741.03;5013067;28;20263;-65
2022/05/19 04:10:42;;;;;;;6.20;4.45;;;;;;;24.23;49.22;101740.88;5013017;28;20076;-65
2022/05/19 04:13:09;;;;;;;6.72;4.85;;;;;;;24.23;49.19;101734.72;5011656;28;20033;-64
2022/05/19 04:15:34;;;;;;;5.70;4.30;;;;;;;24.23;49.19;101737.38;5012956;28;20037;-64
2022/05/19 04:18:06;;;;;;;6.00;4.22;;;;;;;24.22;49.03;101741.84;5011700;28;20022;-65
2022/05/19 04:20:32;;;;;;;6.43;4.30;;;;;;;24.22;49.22;101739.19;5012572;28;20405;-65
2022/05/19 04:23:00;;;;;;;6.78;4.43;;;;;;;24.22;48.97;101749.84;5014784;28;20025;-64
2022/05/19 04:25:27;;;;;;;5.47;4.25;;;;;;;24.22;49.20;101751.69;5015944;28;20113;-64
2022/05/19 04:27:52;;;;;;;5.78;4.40;;;;;;;24.23;48.96;101745.38;5016239;28;20105;-63
2022/05/19 04:30:18;;;;;;;6.00;4.35;;;;;;;24.22;49.14;101739.19;5016639;28;20494;-64
2022/05/19 04:32:44;;;;;;;6.03;4.40;;;;;;;24.21;48.98;101732.19;5015595;28;20040;-64
2022/05/19 04:35:10;;;;;;;5.25;4.00;;;;;;;24.22;49.34;101744.50;5016304;28;20531;-64
2022/05/19 04:37:36;;;;;;;5.68;4.13;;;;;;;24.22;49.00;101728.53;5016637;28;20030;-64
2022/05/19 04:40:03;;;;;;;6.27;4.50;;;;;;;24.21;48.78;101729.53;5015406;28;20125;-64
2022/05/19 04:42:31;;;;;;;6.18;4.80;;;;;;;24.22;49.36;101739.19;5016342;28;20022;-64
2022/05/19 04:44:57;;;;;;;6.50;4.20;;;;;;;24.22;48.90;101741.03;5016330;28;20088;-64
2022/05/19 04:47:23;;;;;;;6.32;4.75;;;;;;;24.21;49.35;101734.88;5015788;28;20478;-64
2022/05/19 04:49:51;;;;;;;6.60;4.20;;;;;;;24.21;48.93;101737.53;5016240;28;20359;-63
2022/05/19 04:52:17;;;;;;;5.35;4.15;;;;;;;24.20;49.18;101721.69;5016162;28;20355;-64
2022/05/19 04:54:42;;;;;;;5.57;4.00;;;;;;;24.21;49.14;101716.22;5015591;28;20022;-64
2022/05/19 04:57:10;;;;;;;5.37;4.13;;;;;;;24.21;48.80;101724.22;5016691;28;20478;-64
2022/05/19 04:59:37;;;;;;;6.28;4.65;;;;;;;24.20;49.06;101724.34;5017280;28;20275;-64
2022/05/19 05:02:02;;;;;;;6.28;4.38;;;;;;;24.21;49.16;101726.88;5015965;28;20021;-64
2022/05/19 05:04:31;;;;;;;6.20;4.50;;;;;;;24.21;49.24;101731.34;5017217;28;20048;-65
2022/05/19 05:06:56;;;;;;;5.20;4.25;;;;;;;24.21;49.21;101731.34;5015776;28;20030;-64
2022/05/19 05:09:22;;;;;;;5.70;4.30;;;;;;;24.21;48.98;101724.22;5015177;28;20033;-65
2022/05/19 05:11:57;;;;;;;6.18;4.35;;;;;;;24.21;49.27;101710.91;5016022;28;20532;-63
2022/05/19 05:14:25;;;;;;;6.05;4.40;;;;;;;24.19;48.89;101712.00;5014977;28;20033;-63
2022/05/19 05:16:55;;;;;;;5.80;4.22;;;;;;;24.16;49.05;101698.97;5015549;28;20386;-64
2022/05/19 05:19:22;;;;;;;5.60;4.13;;;;;;;24.14;49.07;101685.81;5015563;28;20386;-63
2022/05/19 05:21:50;;;;;;;10.00;6.18;;;;;;;24.11;52.82;101685.28;5014878;28;20037;-66
2022/05/19 05:24:15;;;;;;;12.43;6.53;;;;;;;23.98;54.66;101686.41;5015883;28;20114;-65
2022/05/19 05:26:41;;;;;;;9.70;6.50;;;;;;;23.87;55.63;101679.41;5015531;28;20058;-66
2022/05/19 05:29:06;;;;;;;8.82;5.63;;;;;;;23.85;55.30;101670.75;5015002;28;20026;-66
2022/05/19 05:31:32;;;;;;;7.57;5.68;;;;;;;23.85;54.99;101667.25;5015580;28;20022;-71
2022/05/19 05:33:57;;;;;;;9.48;6.68;;;;;;;23.83;55.25;101662.06;5014729;28;20113;-69
2022/05/19 05:36:23;;;;;;;7.97;5.95;;;;;;;23.84;55.69;101652.25;5014679;28;20417;-69
2022/05/19 05:38:48;;;;;;;10.80;6.17;;;;;;;23.83;55.36;101647.88;5015433;28;20100;-67
2022/05/19 05:41:14;;;;;;;10.57;5.65;;;;;;;23.81;55.67;101618.75;5015556;28;20303;-70
2022/05/19 05:43:40;;;;;;;8.02;5.55;;;;;;;23.78;55.63;101619.03;5014522;28;20017;-68
2022/05/19 05:46:14;;;;;;;7.70;5.80;;;;;;;23.75;55.32;101613.16;5014700;28;20045;-64
2022/05/19 05:48:39;;;;;;;;;;;;;;;23.73;54.01;101608.84;5015510;28;20022;-65
2022/05/19 05:51:09;;;;;;;7.00;4.40;;;;;;;23.76;52.76;101615.69;5013828;28;20269;-64
2022/05/19 05:53:36;;;;;;;6.65;4.35;;;;;;;23.77;52.74;101628.00;5014780;28;20037;-66
2022/05/19 05:56:07;;;;;;;6.97;4.32;;;;;;;23.82;52.42;101620.44;5014620;28;20026;-66
2022/05/19 05:58:32;;;;;;;6.53;4.82;;;;;;;23.84;52.26;101615.81;5014100;28;20025;-65
2022/05/19 06:00:58;;;;;;;7.47;5.07;;;;;;;23.87;52.21;101617.38;5014517;28;20030;-66
2022/05/19 06:03:24;;;;;;;7.50;4.68;;;;;;;23.88;51.61;101603.91;5013883;28;20483;-65
2022/05/19 06:05:49;;;;;;;6.55;4.55;;;;;;;23.90;51.80;101599.28;5014230;28;20046;-67
2022/05/19 06:08:15;;;;;;;6.40;4.45;;;;;;;23.91;51.60;101629.41;5014796;28;20022;-66
2022/05/19 06:10:41;;;;;;;6.07;4.20;;;;;;;23.92;51.92;101639.06;5014036;28;20052;-66
2022/05/19 06:13:07;;;;;;;7.50;4.68;;;;;;;23.95;52.12;101640.63;5014383;28;20034;-60
2022/05/19 06:15:32;;;;;;;6.60;4.70;;;;;;;23.96;52.88;101629.81;5014558;28;20026;-60
2022/05/19 06:17:58;;;;;;;8.67;5.60;;;;;;;23.98;53.68;101640.31;5013618;28;20037;-67
2022/05/19 06:20:23;;;;;;;7.03;4.72;;;;;;;24.00;53.27;101633.84;5013902;28;20050;-68
2022/05/19 06:22:49;;;;;;;6.07;4.20;;;;;;;23.98;52.28;101627.00;5014641;28;20121;-68
2022/05/19 06:25:18;;;;;;;7.10;4.53;;;;;;;23.98;52.32;101624.34;5013800;28;20505;-63
2022/05/19 06:27:44;;;;;;;6.72;4.25;;;;;;;23.97;52.02;101615.50;5014241;28;20457;-67
2022/05/19 06:30:13;;;;;;;6.78;4.60;;;;;;;23.98;51.84;101614.53;5014062;28;20037;-67
2022/05/19 06:32:40;;;;;;;7.50;4.50;;;;;;;24.00;52.10;101614.38;5013399;28;20037;-66
2022/05/19 06:35:13;;;;;;;6.35;4.43;;;;;;;24.01;51.90;101614.25;5014048;28;20084;-68
2022/05/19 06:37:39;;;;;;;7.35;3.88;;;;;;;24.02;51.95;101613.28;5014434;28;20109;-68
2022/05/19 06:40:05;;;;;;;7.32;4.60;;;;;;;24.02;52.22;101618.59;5012999;28;20445;-67
2022/05/19 06:42:30;;;;;;;5.35;4.07;;;;;;;24.03;51.86;101612.28;5014316;28;20018;-66
2022/05/19 06:44:56;;;;;;;10.90;4.63;;;;;;;24.05;52.17;101604.13;5012982;28;20049;-68
2022/05/19 06:47:21;;;;;;;6.53;4.60;;;;;;;24.05;52.19;101589.03;5013256;28;20283;-71
2022/05/19 06:49:50;;;;;;;7.57;4.47;;;;;;;24.08;51.94;101594.06;5014250;28;20029;-72
2022/05/19 06:52:28;;;;;;;8.82;4.65;;;;;;;24.10;52.13;101607.22;5014135;28;20153;-69
2022/05/19 06:54:55;;;;;;;7.78;4.32;;;;;;;24.11;52.32;101606.22;5012934;28;20080;-69
2022/05/19 06:57:22;;;;;;;7.75;3.78;;;;;;;24.13;52.15;101603.41;5013927;28;20498;-67
2022/05/19 06:59:49;;;;;;;5.95;3.80;;;;;;;24.13;52.14;101601.56;5013168;28;20024;-67
2022/05/19 07:02:16;;;;;;;8.30;4.75;;;;;;;24.14;52.06;101611.25;5014154;28;20084;-67
2022/05/19 07:04:43;;;;;;;7.38;4.10;;;;;;;24.15;51.93;101604.94;5014004;28;20022;-67
2022/05/19 07:07:10;;;;;;;7.30;4.50;;;;;;;24.16;52.24;101597.78;5012877;28;20029;-69
2022/05/19 07:09:36;;;;;;;7.00;4.47;;;;;;;24.16;52.10;101590.63;5013839;28;20109;-67
2022/05/19 07:12:04;;;;;;;7.10;4.78;;;;;;;24.17;52.09;101587.00;5013450;28;20061;-68
2022/05/19 07:14:30;;;;;;;7.47;4.35;;;;;;;24.17;52.21;101583.50;5012869;28;20112;-67
2022/05/19 07:17:01;;;;;;;9.27;5.53;;;;;;;24.16;54.01;101587.97;5013523;28;20030;-68
2022/05/19 07:22:18;;;;;;;7.38;4.68;;;;;;;24.14;53.28;101581.13;5012711;28;20111;-65
2022/05/19 07:24:43;;;;;;;16.33;4.47;;;;;;;24.15;52.98;101582.78;5013486;28;20044;-66
2022/05/19 07:27:09;;;;;;;7.00;4.40;;;;;;;24.14;52.52;101581.97;5013039;28;20109;-66
2022/05/19 07:29:34;;;;;;;7.80;4.35;;;;;;;24.15;52.18;101577.47;5012843;28;20026;-63
2022/05/19 07:32:01;;;;;;;6.97;4.57;;;;;;;24.14;52.32;101575.81;5013179;28;20022;-65
2022/05/19 07:34:28;;;;;;;9.70;4.50;;;;;;;24.13;52.35;101585.59;5013287;28;20022;-62
2022/05/19 07:36:54;;;;;;;7.25;4.70;;;;;;;24.13;52.70;101593.59;5012226;28;20061;-65
2022/05/19 07:39:19;;;;;;;6.25;4.18;;;;;;;24.12;52.52;101599.09;5013932;28;20049;-63
2022/05/19 07:41:45;;;;;;;7.80;4.40;;;;;;;24.14;53.18;101602.44;5013732;28;20022;-63
2022/05/19 07:44:11;;;;;;;6.87;4.40;;;;;;;24.19;53.07;101610.81;5014400;28;20493;-62
2022/05/19 07:46:37;;;;;;;9.13;4.47;;;;;;;24.22;53.09;101608.69;5013521;28;20279;-63
2022/05/19 07:49:03;;;;;;;7.38;4.43;;;;;;;24.26;52.61;101606.59;5012370;28;20022;-64
2022/05/19 07:51:36;;;;;;;6.35;4.40;;;;;;;24.30;52.07;101599.97;5013052;28;20022;-64
2022/05/19 07:54:15;;;;;;;8.88;4.13;;;;;;;24.34;51.95;101598.69;5012847;28;20109;-62
2022/05/19 07:56:42;;;;;;;8.25;4.45;;;;;;;24.39;51.97;101601.75;5012043;28;20237;-66
2022/05/19 07:59:11;;;;;;;7.00;4.25;;;;;;;24.43;52.57;101599.63;5012676;28;20455;-61
2022/05/19 08:01:42;;;;;;;6.63;4.43;;;;;;;24.37;51.94;101590.41;5013344;28;20033;-63
2022/05/19 08:04:10;;;;;;;6.30;4.28;;;;;;;24.31;52.17;101590.16;5012011;28;20026;-61
2022/05/19 08:06:35;;;;;;;6.00;4.30;;;;;;;24.26;52.00;101582.63;5012826;28;20026;-61
2022/05/19 08:10:20;;;;;;;6.78;4.30;;;;;;;24.22;51.88;101582.06;5012754;28;20493;-60
2022/05/19 08:11:47;;;;;;;7.50;3.95;;;;;;;24.25;52.08;101588.94;5012224;28;20038;-63
2022/05/19 08:16:57;;;;;;;6.38;4.03;;;;;;;24.25;51.92;101602.25;5014142;28;20536;-63
2022/05/19 08:19:22;;;;;;;10.52;5.00;;;;;;;24.27;52.47;101598.47;5013846;28;20034;-63
2022/05/19 08:21:47;;;;;;;7.60;5.55;;;;;;;24.32;53.08;101605.16;5013133;28;20132;-62
2022/05/19 08:24:14;;;;;;;6.63;4.77;;;;;;;24.35;53.14;101589.72;5011794;28;20036;-63
2022/05/19 08:26:39;;;;;;;6.65;4.28;;;;;;;24.36;52.89;101598.56;5012710;28;20058;-62
2022/05/19 08:29:04;;;;;;;5.95;4.10;;;;;;;24.37;52.46;101601.06;5012428;28;20414;-62
2022/05/19 08:31:30;;;;;;;5.15;3.70;;;;;;;24.37;52.45;101597.53;5011792;28;20026;-60
2022/05/19 08:33:58;;;;;;;7.25;4.22;;;;;;;24.37;51.74;101594.88;5012440;28;20478;-62
2022/05/19 08:36:25;;;;;;;7.88;4.47;;;;;;;24.39;52.14;101593.75;5012463;28;20044;-62
2022/05/19 08:38:50;;;;;;;6.10;3.70;;;;;;;24.40;51.77;101583.94;5011562;28;20108;-62
2022/05/19 08:41:38;;;;;;;5.80;3.78;;;;;;;24.40;51.75;101584.78;5012425;28;20109;-62
2022/05/19 08:44:15;;;;;;;6.80;3.83;;;;;;;24.41;51.50;101580.28;5012102;28;20033;-61
2022/05/19 08:46:48;;;;;;;5.68;3.90;;;;;;;24.40;51.38;101574.13;5011766;28;20466;-62
2022/05/19 08:49:41;;;;;;;6.28;4.07;;;;;;;24.39;51.46;101569.78;5012676;28;20080;-62
2022/05/19 08:52:18;;;;;;;5.20;3.60;;;;;;;24.40;51.16;101574.13;5011530;28;20505;-62
2022/05/19 08:54:46;;;;;;;7.20;3.88;;;;;;;24.38;51.39;101565.44;5012334;28;20155;-61
2022/05/19 08:57:22;;;;;;;6.03;4.35;;;;;;;24.37;51.10;101560.25;5012268;28;20026;-62
2022/05/19 09:00:10;;;;;;;5.63;3.63;;;;;;;24.37;51.16;101555.78;5011563;28;20084;-62
2022/05/19 09:02:42;;;;;;;6.30;4.20;;;;;;;24.34;51.57;101553.41;5012276;28;20473;-62
2022/05/19 09:05:07;;;;;;;6.43;3.85;;;;;;;24.33;51.46;101554.41;5011963;28;20482;-62
2022/05/19 09:07:57;;;;;;;6.25;3.80;;;;;;;24.32;51.43;101558.03;5011775;28;20037;-62
2022/05/19 09:10:38;;;;;;;5.95;3.90;;;;;;;24.31;51.33;101552.84;5016008;28;20029;-62
2022/05/19 09:13:25;;;;;;;7.10;3.70;;;;;;;24.31;51.19;101553.72;5015600;28;20109;-62
2022/05/19 09:15:52;;;;;;;5.13;3.67;;;;;;;24.31;51.35;101547.53;5015735;28;20417;-62
2022/05/19 09:18:20;;;;;;;5.05;3.80;;;;;;;24.29;51.29;101541.53;5015538;28;20042;-62
2022/05/19 09:20:53;;;;;;;5.38;3.85;;;;;;;24.30;51.34;101551.19;5014759;28;20041;-62
2022/05/19 09:23:19;;;;;;;5.80;3.97;;;;;;;24.31;51.31;101550.19;5015671;28;20363;-63
2022/05/19 09:25:52;;;;;;;5.18;3.60;;;;;;;24.29;51.11;101544.19;5015574;28;20029;-62
2022/05/19 09:28:18;;;;;;;4.93;3.70;;;;;;;24.29;51.24;101541.53;5015088;28;20033;-62
2022/05/19 09:30:53;;;;;;;7.22;4.22;;;;;;;24.29;51.54;101553.00;5015653;28;20037;-61
2022/05/19 09:33:43;;;;;;;5.53;3.67;;;;;;;24.26;51.58;101545.34;5015503;28;20022;-62
2022/05/19 09:36:12;;;;;;;5.18;3.60;;;;;;;24.24;51.28;101542.81;5014434;28;20037;-62
2022/05/19 09:38:45;;;;;;;6.03;3.97;;;;;;;24.24;51.17;101545.50;5015547;28;20116;-61
2022/05/19 09:41:32;;;;;;;5.78;4.10;;;;;;;24.25;51.48;101546.31;5015255;28;20026;-61
2022/05/19 09:43:59;;;;;;;5.55;3.30;;;;;;;24.23;51.24;101554.44;5015015;28;20030;-61
2022/05/19 09:46:50;;;;;;;6.03;3.60;;;;;;;24.22;51.32;101543.94;5015216;28;20030;-62
2022/05/19 09:49:32;;;;;;;4.90;3.70;;;;;;;24.21;51.45;101543.13;5010656;28;20037;-62
2022/05/19 09:52:03;;;;;;;5.63;3.70;;;;;;;24.20;51.10;101538.78;5014336;28;20034;-62
2022/05/19 09:54:33;;;;;;;5.30;3.42;;;;;;;24.20;51.55;101541.44;5015047;28;20057;-62
2022/05/19 09:57:16;;;;;;;5.00;3.47;;;;;;;24.19;51.44;101531.75;5013924;28;20500;-62
2022/05/19 09:59:47;;;;;;;5.68;3.55;;;;;;;24.18;51.53;101529.25;5015236;28;20112;-62
2022/05/19 10:02:25;;;;;;;5.60;3.65;;;;;;;24.18;51.62;101522.09;5014533;28;20479;-62
2022/05/19 10:04:57;;;;;;;4.85;3.45;;;;;;;24.16;51.60;101520.56;5014352;28;20113;-62
2022/05/19 10:07:36;;;;;;;4.97;3.55;;;;;;;24.15;51.42;101519.75;5014925;28;20025;-63
2022/05/19 10:10:16;;;;;;;5.53;3.65;;;;;;;24.14;51.39;101510.06;5013918;28;20065;-60
2022/05/19 10:12:47;;;;;;;5.03;3.47;;;;;;;24.13;51.63;101496.91;5014622;28;20415;-61
2022/05/19 10:15:15;;;;;;;6.13;3.50;;;;;;;24.12;51.63;101485.41;5014454;28;20394;-62
2022/05/19 10:18:38;;;;;;;9.60;4.97;;;;;;;24.14;51.59;101479.94;5013706;28;20467;-62
2022/05/19 10:21:32;;;;;;;15.38;10.35;;;;;;;24.13;51.22;101480.94;4991216;28;20137;-63
2022/05/19 10:24:16;;;;;;;18.10;16.20;;;;;;;24.11;51.86;101486.41;4991868;28;20504;-62
2022/05/19 10:26:46;;;;;;;24.42;20.80;;;;;;;24.09;51.81;101494.53;5009858;28;20041;-62
2022/05/19 10:32:50;;;;;;;28.38;25.48;;;;;;;24.04;51.93;101474.69;5013578;28;20405;-62
2022/05/19 10:36:03;;;;;;;30.17;26.95;;;;;;;24.03;52.05;101468.50;5014490;28;20389;-62
2022/05/19 10:38:57;;;;;;;31.20;28.05;;;;;;;24.02;52.53;101472.16;5013549;28;20030;-62
2022/05/19 10:41:41;;;;;;;31.58;28.35;;;;;;;24.02;52.66;101477.50;5014350;28;20367;-63
2022/05/19 10:44:19;;;;;;;29.52;26.55;;;;;;;24.01;52.64;101485.63;5013999;28;20042;-61
2022/05/19 10:47:06;;;;;;;28.30;25.35;;;;;;;24.02;52.68;101489.94;5013449;28;20109;-61
2022/05/19 10:50:07;;;;;;;27.70;24.75;;;;;;;24.04;52.56;101485.34;5014262;28;20026;-61
2022/05/19 10:52:44;;;;;;;25.55;22.95;;;;;;;24.06;52.67;101481.50;5013391;28;20030;-60
2022/05/19 10:55:19;;;;;;;25.45;22.83;;;;;;;24.05;52.65;101479.84;5013654;28;20092;-61
2022/05/19 10:57:56;;;;;;;24.48;21.98;;;;;;;24.05;52.84;101479.84;5013860;28;20459;-61
2022/05/19 11:00:45;;;;;;;24.83;21.55;;;;;;;24.06;52.30;101475.38;5013311;28;20105;-62
2022/05/19 11:03:23;;;;;;;21.98;19.83;;;;;;;24.06;52.62;101468.19;5013569;28;20029;-63
2022/05/19 11:06:17;;;;;;;22.23;19.92;;;;;;;24.06;52.52;101472.69;5012753;28;20026;-64
2022/05/19 11:08:59;;;;;;;21.20;19.00;;;;;;;24.07;52.37;101464.56;5013939;28;20104;-63
2022/05/19 11:12:07;;;;;;;20.48;18.35;;;;;;;24.09;52.16;101467.09;5013634;28;20390;-64
2022/05/19 11:14:55;;;;;;;20.45;18.33;;;;;;;24.10;52.32;101466.09;5013313;28;20030;-64
2022/05/19 11:17:48;;;;;;;22.00;18.00;;;;;;;24.09;52.09;101461.75;5013788;28;20076;-63
2022/05/19 11:20:41;;;;;;;18.98;16.77;;;;;;;24.08;51.98;101473.38;5012995;28;20025;-62
2022/05/19 11:23:21;;;;;;;17.90;16.10;;;;;;;24.09;51.90;101483.88;5013516;28;20073;-61
2022/05/19 11:28:49;;;;;;;17.45;15.63;;;;;;;24.06;52.10;101507.31;5012680;28;20088;-63
2022/05/19 11:31:23;;;;;;;16.13;14.43;;;;;;;24.06;51.96;101512.63;5013309;28;20389;-65
2022/05/19 11:33:52;;;;;;;16.33;14.52;;;;;;;24.07;52.05;101523.13;5013233;28;20022;-67
2022/05/19 11:36:25;;;;;;;16.10;13.90;;;;;;;24.07;52.39;101535.63;5012923;28;20487;-64
2022/05/19 11:39:06;;;;;;;15.25;13.65;;;;;;;24.04;52.27;101582.00;5012858;28;20030;-65
2022/05/19 11:41:35;;;;;;;16.60;13.48;;;;;;;24.03;52.08;101789.81;5012823;28;20109;-67
2022/05/19 11:44:10;;;;;;;14.48;12.93;;;;;;;24.00;52.15;101790.09;5013065;28;20026;-67
2022/05/19 11:46:58;;;;;;;14.38;12.18;;;;;;;23.98;52.74;101782.25;5013303;28;20029;-66
2022/05/19 11:55:40;;;;;;;14.20;10.50;;;;;;;24.02;52.70;101774.81;5012511;28;20560;-66
2022/05/19 11:58:27;;;;;;;12.23;10.57;;;;;;;24.00;53.13;101768.81;5013142;28;20061;-65
2022/05/19 12:01:13;;;;;;;14.52;9.90;;;;;;;24.02;52.80;101749.06;5012867;28;20038;-64